createdAt,value
2023-02-16T00:01:26.382Z,2.64
2023-02-16T00:03:54.300Z,2.62
2023-02-16T00:06:21.238Z,2.61
2023-02-16T00:08:50.140Z,2.57
2023-02-16T00:11:55.531Z,2.55
2023-02-16T00:14:23.496Z,2.56
2023-02-16T00:16:50.565Z,2.59
2023-02-16T00:19:24.366Z,2.61
2023-02-16T00:21:53.557Z,2.61
2023-02-16T00:24:20.711Z,2.57
2023-02-16T00:26:48.107Z,2.55
2023-02-16T00:29:21.168Z,2.51
2023-02-16T00:31:48.423Z,2.47
2023-02-16T00:34:29.854Z,2.43
2023-02-16T00:36:57.561Z,2.41
2023-02-16T00:39:25.171Z,2.41
2023-02-16T00:41:57.626Z,2.44
2023-02-16T00:44:44.858Z,2.47
2023-02-16T00:47:27.648Z,2.45
2023-02-16T00:49:55.275Z,2.41
2023-02-16T00:52:35.573Z,2.41
2023-02-16T00:55:08.826Z,2.41
2023-02-16T00:57:46.684Z,2.41
2023-02-16T01:00:13.265Z,2.35
2023-02-16T01:02:39.670Z,2.31
2023-02-16T01:05:06.465Z,2.27
2023-02-16T01:07:51.195Z,2.25
2023-02-16T01:10:39.468Z,2.19
2023-02-16T01:13:06.168Z,2.12
2023-02-16T01:15:32.739Z,2.10
2023-02-16T01:17:59.156Z,2.06
2023-02-16T01:20:26.913Z,2.04
2023-02-16T01:22:53.394Z,2.02
2023-02-16T01:25:20.221Z,1.99
2023-02-16T01:27:48.447Z,1.99
2023-02-16T01:30:19.183Z,1.99
2023-02-16T01:32:51.447Z,1.96
2023-02-16T01:35:28.204Z,1.94
2023-02-16T01:37:54.958Z,1.91
2023-02-16T01:40:33.266Z,1.89
2023-02-16T01:43:22.326Z,1.88
2023-02-16T01:45:57.071Z,1.86
2023-02-16T01:48:28.904Z,1.84
2023-02-16T01:51:11.839Z,1.80
2023-02-16T01:54:06.027Z,1.76
2023-02-16T01:56:54.555Z,1.73
2023-02-16T01:59:39.396Z,1.74
2023-02-16T02:02:23.335Z,1.74
2023-02-16T02:05:12.272Z,1.74
2023-02-16T02:08:06.162Z,1.69
2023-02-16T02:10:52.401Z,1.67
2023-02-16T02:13:39.628Z,1.67
2023-02-16T02:16:07.000Z,1.65
2023-02-16T02:18:33.811Z,1.64
2023-02-16T02:21:47.092Z,1.59
2023-02-16T02:24:55.005Z,1.52
2023-02-16T02:27:21.299Z,1.48
2023-02-16T02:30:06.362Z,1.45
2023-02-16T02:32:54.784Z,1.44
2023-02-16T02:35:38.178Z,1.42
2023-02-16T02:38:38.741Z,1.39
2023-02-16T02:41:07.848Z,1.36
2023-02-16T02:43:50.562Z,1.35
2023-02-16T02:46:24.647Z,1.35
2023-02-16T02:48:51.425Z,1.34
2023-02-16T02:51:30.865Z,1.31
2023-02-16T02:54:34.898Z,1.29
2023-02-16T02:57:47.957Z,1.25
2023-02-16T03:00:44.319Z,1.21
2023-02-16T03:03:20.606Z,1.21
2023-02-16T03:05:53.260Z,1.20
2023-02-16T03:08:23.966Z,1.20
2023-02-16T03:11:14.397Z,1.19
2023-02-16T03:13:46.701Z,1.18
2023-02-16T03:16:16.969Z,1.17
2023-02-16T03:19:03.356Z,1.15
2023-02-16T03:21:48.576Z,1.13
2023-02-16T03:24:42.848Z,1.11
2023-02-16T03:27:28.767Z,1.10
2023-02-16T03:29:57.689Z,1.05
2023-02-16T03:32:24.320Z,1.03
2023-02-16T03:34:50.964Z,1.02
2023-02-16T03:37:17.548Z,1.02
2023-02-16T03:40:02.835Z,1.02
2023-02-16T03:42:29.269Z,1.02
2023-02-16T03:44:55.760Z,1.04
2023-02-16T03:47:22.241Z,1.05
2023-02-16T03:49:48.880Z,1.06
2023-02-16T03:52:15.313Z,1.08
2023-02-16T03:54:41.804Z,1.08
2023-02-16T03:57:08.242Z,1.10
2023-02-16T03:59:34.654Z,1.09
2023-02-16T04:02:01.135Z,1.10
2023-02-16T04:04:27.670Z,1.07
2023-02-16T04:06:54.122Z,1.05
2023-02-16T04:09:20.497Z,1.03
2023-02-16T04:12:05.388Z,0.99
2023-02-16T04:14:31.826Z,0.96
2023-02-16T04:16:58.328Z,0.95
2023-02-16T04:19:24.797Z,0.90
2023-02-16T04:21:53.046Z,0.88
2023-02-16T04:24:19.639Z,0.86
2023-02-16T04:26:46.120Z,0.85
2023-02-16T04:29:12.511Z,0.85
2023-02-16T04:31:39.099Z,0.83
2023-02-16T04:34:05.635Z,0.80
2023-02-16T04:36:32.068Z,0.80
2023-02-16T04:38:58.451Z,0.79
2023-02-16T04:41:26.455Z,0.78
2023-02-16T04:43:53.836Z,0.77
2023-02-16T04:46:20.379Z,0.75
2023-02-16T04:48:47.052Z,0.74
2023-02-16T04:51:13.466Z,0.76
2023-02-16T04:53:39.845Z,0.81
2023-02-16T04:56:09.778Z,0.85
2023-02-16T04:58:36.434Z,0.89
2023-02-16T05:01:03.501Z,0.95
2023-02-16T05:03:30.411Z,0.98
2023-02-16T05:05:56.835Z,1.02
2023-02-16T05:08:23.359Z,1.05
2023-02-16T05:11:08.519Z,1.06
2023-02-16T05:13:53.851Z,1.04
2023-02-16T05:16:22.239Z,1.03
2023-02-16T05:18:48.974Z,1.02
2023-02-16T05:21:33.748Z,1.02
2023-02-16T05:24:05.492Z,0.97
2023-02-16T05:26:32.384Z,0.94
2023-02-16T05:28:59.074Z,0.90
2023-02-16T05:31:26.254Z,0.85
2023-02-16T05:33:53.575Z,0.82
2023-02-16T05:36:20.018Z,0.81
2023-02-16T05:38:46.558Z,0.80
2023-02-16T05:41:23.340Z,0.82
2023-02-16T05:43:54.380Z,0.85
2023-02-16T05:46:22.406Z,0.88
2023-02-16T05:48:49.189Z,0.91
2023-02-16T05:51:16.036Z,0.90
2023-02-16T05:53:42.530Z,0.95
2023-02-16T05:56:09.433Z,0.98
2023-02-16T05:58:36.076Z,1.00
2023-02-16T06:01:02.695Z,0.96
2023-02-16T06:03:29.411Z,0.94
2023-02-16T06:05:58.164Z,0.96
2023-02-16T06:08:25.188Z,0.93
2023-02-16T06:10:53.487Z,0.89
2023-02-16T06:13:20.905Z,0.90
2023-02-16T06:15:48.038Z,0.89
2023-02-16T06:18:14.430Z,0.87
2023-02-16T06:20:43.033Z,0.89
2023-02-16T06:23:10.958Z,0.87
2023-02-16T06:25:37.692Z,0.85
2023-02-16T06:28:04.800Z,0.84
2023-02-16T06:30:31.217Z,0.81
2023-02-16T06:32:57.672Z,0.80
2023-02-16T06:35:24.508Z,0.78
2023-02-16T06:37:51.413Z,0.76
2023-02-16T06:40:18.142Z,0.74
2023-02-16T06:42:44.985Z,0.75
2023-02-16T06:45:12.025Z,0.75
2023-02-16T06:47:39.307Z,0.74
2023-02-16T06:50:09.689Z,0.76
2023-02-16T06:52:37.264Z,0.73
2023-02-16T06:55:04.009Z,0.73
2023-02-16T06:57:30.410Z,0.72
2023-02-16T06:59:57.270Z,0.73
2023-02-16T07:02:23.757Z,0.73
2023-02-16T07:04:50.153Z,0.77
2023-02-16T07:07:16.582Z,0.83
2023-02-16T07:09:42.969Z,0.85
2023-02-16T07:12:09.356Z,0.87
2023-02-16T07:14:35.866Z,0.89
2023-02-16T07:17:04.370Z,0.96
2023-02-16T07:19:34.730Z,0.98
2023-02-16T07:22:02.004Z,1.00
2023-02-16T07:24:28.398Z,1.00
2023-02-16T07:26:55.322Z,1.03
2023-02-16T07:29:22.153Z,1.08
2023-02-16T07:31:48.898Z,1.13
2023-02-16T07:34:15.378Z,1.17
2023-02-16T07:36:42.174Z,1.22
2023-02-16T07:39:08.576Z,1.29
2023-02-16T07:41:34.957Z,1.38
2023-02-16T07:44:01.323Z,1.50
2023-02-16T07:46:27.838Z,1.64
2023-02-16T07:48:54.241Z,1.75
2023-02-16T07:51:24.771Z,1.91
2023-02-16T07:53:51.504Z,2.05
2023-02-16T07:56:20.328Z,2.21
2023-02-16T07:58:47.498Z,2.33
2023-02-16T08:01:15.933Z,2.43
2023-02-16T08:03:42.460Z,2.60
2023-02-16T08:06:09.459Z,2.71
2023-02-16T08:08:37.463Z,2.87
2023-02-16T08:11:19.289Z,2.92
2023-02-16T08:13:46.129Z,2.98
2023-02-16T08:16:19.223Z,3.05
2023-02-16T08:18:45.760Z,3.08
2023-02-16T08:21:17.857Z,3.14
2023-02-16T08:23:49.536Z,3.19
2023-02-16T08:26:17.305Z,3.24
2023-02-16T08:28:50.121Z,3.31
2023-02-16T08:31:18.942Z,3.41
2023-02-16T08:33:47.465Z,3.46
2023-02-16T08:36:24.794Z,3.54
2023-02-16T08:38:53.322Z,3.55
2023-02-16T08:41:21.381Z,3.54
2023-02-16T08:43:48.014Z,3.56
2023-02-16T08:46:15.185Z,3.65
2023-02-16T08:48:43.906Z,3.61
2023-02-16T08:51:14.054Z,3.69
2023-02-16T08:53:40.670Z,3.69
2023-02-16T08:56:09.764Z,3.72
2023-02-16T08:58:37.147Z,3.74
2023-02-16T09:01:08.232Z,3.74
2023-02-16T09:03:35.777Z,3.78
2023-02-16T09:06:05.015Z,3.84
2023-02-16T09:08:37.471Z,3.92
2023-02-16T09:11:06.290Z,3.93
2023-02-16T09:13:37.845Z,3.98
2023-02-16T09:16:09.783Z,4.00
2023-02-16T09:18:37.621Z,3.96
2023-02-16T09:21:10.927Z,3.92
2023-02-16T09:23:42.706Z,3.97
2023-02-16T09:26:11.335Z,3.98
2023-02-16T09:28:39.173Z,3.92
2023-02-16T09:31:13.803Z,4.00
2023-02-16T09:33:41.930Z,3.97
2023-02-16T09:36:11.594Z,3.98
2023-02-16T09:38:41.768Z,3.99
2023-02-16T09:41:27.976Z,3.99
2023-02-16T09:44:00.864Z,4.00
2023-02-16T09:46:30.487Z,4.00
2023-02-16T09:48:57.736Z,3.93
2023-02-16T09:51:41.014Z,3.91
2023-02-16T09:54:35.262Z,3.83
2023-02-16T09:57:41.181Z,3.81
2023-02-16T10:00:28.041Z,3.84
2023-02-16T10:03:23.675Z,3.83
2023-02-16T10:06:07.230Z,3.88
2023-02-16T10:08:50.463Z,3.96
2023-02-16T10:11:38.154Z,4.04
2023-02-16T10:14:17.222Z,4.15
2023-02-16T10:16:51.733Z,4.32
2023-02-16T10:19:46.846Z,4.75
2023-02-16T10:22:17.796Z,5.24
2023-02-16T10:25:00.547Z,5.75
2023-02-16T10:27:33.231Z,6.24
2023-02-16T10:29:59.827Z,6.58
2023-02-16T10:32:37.289Z,6.91
2023-02-16T10:35:18.064Z,7.27
2023-02-16T10:38:04.755Z,7.49
2023-02-16T10:40:51.573Z,7.95
2023-02-16T10:43:39.671Z,8.32
2023-02-16T10:46:06.969Z,8.47
2023-02-16T10:48:33.606Z,8.56
2023-02-16T10:51:09.177Z,8.56
2023-02-16T10:54:13.068Z,8.72
2023-02-16T10:56:54.330Z,8.87
2023-02-16T10:59:40.133Z,8.99
2023-02-16T11:02:26.932Z,8.89
2023-02-16T11:04:55.755Z,8.95
2023-02-16T11:07:24.994Z,8.82
2023-02-16T11:09:56.248Z,8.77
2023-02-16T11:12:34.254Z,8.80
2023-02-16T11:15:08.118Z,8.62
2023-02-16T11:17:49.598Z,8.59
2023-02-16T11:20:32.650Z,8.53
2023-02-16T11:23:17.362Z,8.51
2023-02-16T11:26:05.534Z,8.48
2023-02-16T11:28:44.348Z,8.50
2023-02-16T11:31:17.746Z,8.58
2023-02-16T11:34:12.476Z,8.61
2023-02-16T11:36:45.223Z,8.67
2023-02-16T11:39:20.500Z,8.66
2023-02-16T11:42:01.145Z,8.52
2023-02-16T11:44:34.564Z,8.43
2023-02-16T11:47:05.975Z,8.35
2023-02-16T11:49:36.117Z,8.35
2023-02-16T11:52:17.908Z,8.26
2023-02-16T11:54:57.436Z,8.25
2023-02-16T11:57:28.462Z,8.32
2023-02-16T11:59:56.564Z,8.41
2023-02-16T12:02:37.973Z,8.46
2023-02-16T12:05:21.732Z,8.57
2023-02-16T12:08:12.952Z,8.68
2023-02-16T12:11:12.222Z,8.77
2023-02-16T12:13:57.899Z,8.85
2023-02-16T12:16:35.219Z,8.93
2023-02-16T12:19:20.886Z,8.97
2023-02-16T12:21:50.663Z,9.03
2023-02-16T12:24:33.439Z,9.08
2023-02-16T12:27:07.294Z,9.12
2023-02-16T12:29:39.467Z,9.12
2023-02-16T12:32:44.018Z,9.11
2023-02-16T12:35:22.406Z,9.12
2023-02-16T12:38:13.765Z,9.17
2023-02-16T12:41:04.627Z,9.19
2023-02-16T12:43:42.947Z,9.18
2023-02-16T12:46:32.917Z,9.12
2023-02-16T12:49:07.278Z,9.09
2023-02-16T12:51:42.356Z,9.12
2023-02-16T12:54:17.357Z,9.14
2023-02-16T12:56:50.239Z,9.13
2023-02-16T12:59:35.499Z,9.16
2023-02-16T13:02:09.845Z,9.17
2023-02-16T13:04:57.339Z,9.19
2023-02-16T13:07:38.307Z,9.20
2023-02-16T13:10:07.480Z,9.19
2023-02-16T13:12:39.479Z,9.18
2023-02-16T13:15:16.850Z,9.17
2023-02-16T13:17:48.949Z,9.17
2023-02-16T13:20:17.796Z,9.15
2023-02-16T13:22:54.734Z,9.17
2023-02-16T13:25:39.828Z,9.19
2023-02-16T13:28:27.816Z,9.23
2023-02-16T13:31:00.204Z,9.24
2023-02-16T13:33:37.766Z,9.23
2023-02-16T13:36:22.399Z,9.24
2023-02-16T13:39:13.954Z,9.22
2023-02-16T13:41:55.609Z,9.23
2023-02-16T13:44:53.636Z,9.23
2023-02-16T13:47:27.418Z,9.24
2023-02-16T13:50:02.969Z,9.25
2023-02-16T13:52:34.318Z,9.26
2023-02-16T13:55:03.300Z,9.26
2023-02-16T13:57:50.696Z,9.24
2023-02-16T14:00:38.775Z,9.25
2023-02-16T14:03:22.971Z,9.25
2023-02-16T14:05:52.127Z,9.24
2023-02-16T14:08:29.590Z,9.24
2023-02-16T14:11:03.732Z,9.25
2023-02-16T14:13:38.943Z,9.26
2023-02-16T14:16:10.674Z,9.27
2023-02-16T14:18:44.719Z,9.31
2023-02-16T14:21:27.820Z,9.32
2023-02-16T14:23:57.219Z,9.37
2023-02-16T14:26:24.838Z,9.39
2023-02-16T14:29:09.842Z,9.40
2023-02-16T14:31:47.648Z,9.40
2023-02-16T14:34:35.713Z,9.41
2023-02-16T14:37:35.017Z,9.40
2023-02-16T14:40:18.498Z,9.41
2023-02-16T14:42:51.471Z,9.45
2023-02-16T14:45:37.702Z,9.48
2023-02-16T14:48:30.275Z,9.48
2023-02-16T14:51:33.710Z,9.52
2023-02-16T14:54:26.945Z,9.54
2023-02-16T14:57:07.113Z,9.54
2023-02-16T14:59:52.839Z,9.59
2023-02-16T15:02:40.417Z,9.65
2023-02-16T15:05:20.065Z,9.70
2023-02-16T15:07:50.742Z,9.75
2023-02-16T15:10:26.426Z,9.82
2023-02-16T15:12:54.978Z,9.88
2023-02-16T15:15:48.798Z,9.94
2023-02-16T15:18:22.724Z,9.99
2023-02-16T15:20:52.945Z,10.06
2023-02-16T15:23:25.833Z,10.11
2023-02-16T15:26:04.116Z,10.14
2023-02-16T15:28:36.817Z,10.18
2023-02-16T15:31:10.706Z,10.24
2023-02-16T15:33:40.385Z,10.25
2023-02-16T15:36:11.893Z,10.29
2023-02-16T15:38:41.838Z,10.31
2023-02-16T15:41:14.193Z,10.34
2023-02-16T15:43:48.085Z,10.35
2023-02-16T15:46:24.255Z,10.37
2023-02-16T15:48:50.976Z,10.37
2023-02-16T15:51:37.888Z,10.38
2023-02-16T15:54:19.233Z,10.40
2023-02-16T15:56:51.561Z,10.39
2023-02-16T15:59:35.787Z,10.37
2023-02-16T16:02:24.619Z,10.36
2023-02-16T16:04:55.274Z,10.37
2023-02-16T16:07:32.807Z,10.33
2023-02-16T16:10:00.271Z,10.31
2023-02-16T16:12:27.618Z,10.30
2023-02-16T16:15:00.504Z,10.25
2023-02-16T16:17:31.101Z,10.24
2023-02-16T16:20:17.751Z,10.19
2023-02-16T16:22:44.820Z,10.16
2023-02-16T16:25:37.846Z,10.12
2023-02-16T16:28:07.555Z,10.07
2023-02-16T16:30:36.977Z,10.06
2023-02-16T16:33:06.393Z,10.02
2023-02-16T16:35:45.314Z,10.00
2023-02-16T16:38:33.236Z,9.99
2023-02-16T16:41:03.344Z,9.98
2023-02-16T16:43:32.546Z,9.95
2023-02-16T16:46:08.121Z,9.94
2023-02-16T16:48:37.180Z,9.93
2023-02-16T16:51:18.096Z,9.90
2023-02-16T16:53:52.818Z,9.86
2023-02-16T16:56:20.283Z,9.85
2023-02-16T16:58:56.734Z,9.86
2023-02-16T17:01:24.651Z,9.84
2023-02-16T17:03:51.076Z,9.84
2023-02-16T17:06:18.653Z,9.84
2023-02-16T17:08:45.747Z,9.84
2023-02-16T17:11:33.688Z,9.83
2023-02-16T17:14:10.163Z,9.82
2023-02-16T17:16:40.834Z,9.82
2023-02-16T17:19:07.318Z,9.81
2023-02-16T17:21:33.715Z,9.81
2023-02-16T17:24:00.214Z,9.83
2023-02-16T17:26:26.756Z,9.84
2023-02-16T17:28:53.586Z,9.84
2023-02-16T17:31:20.092Z,9.85
2023-02-16T17:33:46.663Z,9.85
2023-02-16T17:36:15.448Z,9.85
2023-02-16T17:38:41.956Z,9.88
2023-02-16T17:41:19.165Z,9.90
2023-02-16T17:43:45.581Z,9.89
2023-02-16T17:46:13.333Z,9.91
2023-02-16T17:48:39.775Z,9.92
2023-02-16T17:51:13.278Z,9.91
2023-02-16T17:53:41.141Z,9.89
2023-02-16T17:56:11.695Z,9.90
2023-02-16T17:58:38.229Z,9.89
2023-02-16T18:01:05.034Z,9.87
2023-02-16T18:03:31.522Z,9.86
2023-02-16T18:05:57.906Z,9.86
2023-02-16T18:08:24.302Z,9.85
2023-02-16T18:10:53.822Z,9.86
2023-02-16T18:13:20.357Z,9.86
2023-02-16T18:15:48.881Z,9.87
2023-02-16T18:18:16.590Z,9.89
2023-02-16T18:20:43.830Z,9.87
2023-02-16T18:23:10.338Z,9.88
2023-02-16T18:25:37.569Z,9.85
2023-02-16T18:28:04.072Z,9.87
2023-02-16T18:30:30.888Z,9.88
2023-02-16T18:32:57.438Z,9.89
2023-02-16T18:35:23.888Z,9.86
2023-02-16T18:37:50.352Z,9.86
2023-02-16T18:40:19.682Z,9.86
2023-02-16T18:42:47.259Z,9.85
2023-02-16T18:45:13.905Z,9.83
2023-02-16T18:47:40.309Z,9.83
2023-02-16T18:50:07.271Z,9.82
2023-02-16T18:52:33.709Z,9.81
2023-02-16T18:55:00.115Z,9.82
2023-02-16T18:57:26.597Z,9.84
2023-02-16T18:59:53.139Z,9.83
2023-02-16T19:02:19.556Z,9.81
2023-02-16T19:04:46.031Z,9.82
2023-02-16T19:07:12.420Z,9.82
2023-02-16T19:09:38.885Z,9.84
2023-02-16T19:12:05.556Z,9.87
2023-02-16T19:14:32.021Z,9.87
2023-02-16T19:16:58.374Z,9.91
2023-02-16T19:19:24.814Z,9.94
2023-02-16T19:21:51.241Z,9.97
2023-02-16T19:24:17.662Z,10.03
2023-02-16T19:26:44.092Z,10.05
2023-02-16T19:29:10.458Z,10.07
2023-02-16T19:31:37.157Z,10.10
2023-02-16T19:34:03.708Z,10.11
2023-02-16T19:36:32.045Z,10.12
2023-02-16T19:38:58.667Z,10.12
2023-02-16T19:41:37.171Z,10.15
2023-02-16T19:44:04.019Z,10.16
2023-02-16T19:46:31.462Z,10.18
2023-02-16T19:48:58.798Z,10.19
2023-02-16T19:51:25.841Z,10.20
2023-02-16T19:53:52.233Z,10.22
2023-02-16T19:56:22.051Z,10.23
2023-02-16T19:58:49.080Z,10.24
2023-02-16T20:01:18.729Z,10.25
2023-02-16T20:03:46.285Z,10.25
2023-02-16T20:06:18.992Z,10.29
2023-02-16T20:08:46.421Z,10.28
2023-02-16T20:11:13.786Z,10.30
2023-02-16T20:13:40.367Z,10.30
2023-02-16T20:16:09.161Z,10.31
2023-02-16T20:18:36.448Z,10.31
2023-02-16T20:21:24.180Z,10.27
2023-02-16T20:23:53.363Z,10.25
2023-02-16T20:26:22.481Z,10.27
2023-02-16T20:28:50.086Z,10.27
2023-02-16T20:31:23.847Z,10.24
2023-02-16T20:33:51.085Z,10.21
2023-02-16T20:36:17.530Z,10.18
2023-02-16T20:38:44.306Z,10.15
2023-02-16T20:41:10.834Z,10.10
2023-02-16T20:43:37.926Z,10.05
2023-02-16T20:46:06.302Z,10.00
2023-02-16T20:48:33.606Z,9.90
2023-02-16T20:51:02.842Z,9.85
2023-02-16T20:53:29.822Z,9.79
2023-02-16T20:56:06.176Z,9.75
2023-02-16T20:58:35.194Z,9.70
2023-02-16T21:01:02.585Z,9.65
2023-02-16T21:03:29.075Z,9.63
2023-02-16T21:05:55.821Z,9.61
2023-02-16T21:08:22.257Z,9.60
2023-02-16T21:10:49.074Z,9.58
2023-02-16T21:13:15.524Z,9.57
2023-02-16T21:15:41.895Z,9.54
2023-02-16T21:18:08.296Z,9.55
2023-02-16T21:20:34.691Z,9.54
2023-02-16T21:23:03.501Z,9.53
2023-02-16T21:25:30.468Z,9.52
2023-02-16T21:27:57.016Z,9.51
2023-02-16T21:30:23.579Z,9.50
2023-02-16T21:32:50.547Z,9.49
2023-02-16T21:35:18.087Z,9.48
2023-02-16T21:37:44.559Z,9.47
2023-02-16T21:40:30.571Z,9.45
2023-02-16T21:42:57.535Z,9.42
2023-02-16T21:45:24.087Z,9.43
2023-02-16T21:48:08.861Z,9.42
2023-02-16T21:50:41.010Z,9.40
2023-02-16T21:53:09.160Z,9.40
2023-02-16T21:55:56.269Z,9.40
2023-02-16T21:58:26.630Z,9.38
2023-02-16T22:00:53.785Z,9.39
2023-02-16T22:03:20.673Z,9.39
2023-02-16T22:05:47.468Z,9.39
2023-02-16T22:08:14.548Z,9.37
2023-02-16T22:10:41.270Z,9.37
2023-02-16T22:13:07.774Z,9.37
2023-02-16T22:15:36.645Z,9.38
2023-02-16T22:18:06.876Z,9.38
2023-02-16T22:20:33.421Z,9.38
2023-02-16T22:22:59.871Z,9.38
2023-02-16T22:25:26.295Z,9.40
2023-02-16T22:27:52.855Z,9.40
2023-02-16T22:30:19.435Z,9.42
2023-02-16T22:32:45.997Z,9.39
2023-02-16T22:35:12.742Z,9.40
2023-02-16T22:37:39.253Z,9.42
2023-02-16T22:40:06.344Z,9.45
2023-02-16T22:42:32.927Z,9.46
2023-02-16T22:44:59.297Z,9.45
2023-02-16T22:47:25.762Z,9.45
2023-02-16T22:49:52.175Z,9.44
2023-02-16T22:52:18.605Z,9.43
2023-02-16T22:54:45.073Z,9.40
2023-02-16T22:57:11.482Z,9.38
2023-02-16T22:59:37.912Z,9.36
2023-02-16T23:02:04.642Z,9.36
2023-02-16T23:04:31.082Z,9.35
2023-02-16T23:06:57.448Z,9.35
2023-02-16T23:09:24.077Z,9.34
2023-02-16T23:11:50.508Z,9.34
2023-02-16T23:14:18.355Z,9.34
2023-02-16T23:16:51.577Z,9.31
2023-02-16T23:19:24.673Z,9.31
2023-02-16T23:21:51.670Z,9.30
2023-02-16T23:24:21.268Z,9.31
2023-02-16T23:26:48.052Z,9.31
2023-02-16T23:29:14.887Z,9.33
2023-02-16T23:31:43.115Z,9.34
2023-02-16T23:34:10.834Z,9.35
2023-02-16T23:36:37.974Z,9.35
2023-02-16T23:39:10.374Z,9.36
2023-02-16T23:41:37.420Z,9.34
2023-02-16T23:44:04.663Z,9.34
2023-02-16T23:46:31.612Z,9.35
2023-02-16T23:48:58.316Z,9.36
2023-02-16T23:51:25.058Z,9.37
2023-02-16T23:53:51.511Z,9.36
2023-02-16T23:56:23.162Z,9.39
2023-02-16T23:58:50.246Z,9.38
